sensor_id;sensor_type;location;lat;lon;timestamp;temperature;humidity
52799;DHT22;38667;42.872;74.622;2023-04-07T00:02:22;7.60;66.70
52799;DHT22;38667;42.872;74.622;2023-04-07T00:04:48;7.60;66.40
52799;DHT22;38667;42.872;74.622;2023-04-07T00:07:14;7.60;66.30
52799;DHT22;38667;42.872;74.622;2023-04-07T00:09:41;7.70;66.10
52799;DHT22;38667;42.872;74.622;2023-04-07T00:12:07;7.70;65.90
52799;DHT22;38667;42.872;74.622;2023-04-07T00:14:35;7.80;65.40
52799;DHT22;38667;42.872;74.622;2023-04-07T00:17:01;7.80;64.70
52799;DHT22;38667;42.872;74.622;2023-04-07T00:19:28;7.90;64.40
52799;DHT22;38667;42.872;74.622;2023-04-07T00:21:54;8.00;63.90
52799;DHT22;38667;42.872;74.622;2023-04-07T00:24:20;8.10;63.50
52799;DHT22;38667;42.872;74.622;2023-04-07T00:26:46;8.20;63.20
52799;DHT22;38667;42.872;74.622;2023-04-07T00:29:13;8.20;62.70
52799;DHT22;38667;42.872;74.622;2023-04-07T00:31:41;8.30;61.90
52799;DHT22;38667;42.872;74.622;2023-04-07T00:34:07;8.40;61.10
52799;DHT22;38667;42.872;74.622;2023-04-07T00:36:33;8.50;60.50
52799;DHT22;38667;42.872;74.622;2023-04-07T00:39:00;8.60;59.90
52799;DHT22;38667;42.872;74.622;2023-04-07T00:41:26;8.70;59.60
52799;DHT22;38667;42.872;74.622;2023-04-07T00:43:52;8.70;59.30
52799;DHT22;38667;42.872;74.622;2023-04-07T00:46:21;8.80;59.00
52799;DHT22;38667;42.872;74.622;2023-04-07T00:48:49;8.90;58.30
52799;DHT22;38667;42.872;74.622;2023-04-07T00:51:16;8.90;57.80
52799;DHT22;38667;42.872;74.622;2023-04-07T00:53:43;9.00;57.70
52799;DHT22;38667;42.872;74.622;2023-04-07T00:56:09;9.00;57.30
52799;DHT22;38667;42.872;74.622;2023-04-07T00:58:35;9.10;56.90
52799;DHT22;38667;42.872;74.622;2023-04-07T01:01:06;9.10;56.70
52799;DHT22;38667;42.872;74.622;2023-04-07T01:03:45;9.10;56.20
52799;DHT22;38667;42.872;74.622;2023-04-07T01:06:18;9.10;55.80
52799;DHT22;38667;42.872;74.622;2023-04-07T01:08:50;9.10;55.00
52799;DHT22;38667;42.872;74.622;2023-04-07T01:11:23;9.10;54.70
52799;DHT22;38667;42.872;74.622;2023-04-07T01:13:51;9.20;54.80
52799;DHT22;38667;42.872;74.622;2023-04-07T01:16:23;9.20;54.90
52799;DHT22;38667;42.872;74.622;2023-04-07T01:18:54;9.20;54.90
52799;DHT22;38667;42.872;74.622;2023-04-07T01:21:25;9.20;54.70
52799;DHT22;38667;42.872;74.622;2023-04-07T01:24:04;9.20;54.50
52799;DHT22;38667;42.872;74.622;2023-04-07T01:26:32;9.20;54.60
52799;DHT22;38667;42.872;74.622;2023-04-07T01:32:03;9.30;54.60
52799;DHT22;38667;42.872;74.622;2023-04-07T01:34:31;9.30;54.70
52799;DHT22;38667;42.872;74.622;2023-04-07T01:36:58;9.30;54.60
52799;DHT22;38667;42.872;74.622;2023-04-07T01:39:26;9.30;55.00
52799;DHT22;38667;42.872;74.622;2023-04-07T01:41:53;9.30;55.10
52799;DHT22;38667;42.872;74.622;2023-04-07T01:44:20;9.30;55.20
52799;DHT22;38667;42.872;74.622;2023-04-07T01:46:47;9.30;55.40
52799;DHT22;38667;42.872;74.622;2023-04-07T01:49:16;9.30;55.80
52799;DHT22;38667;42.872;74.622;2023-04-07T01:51:44;9.30;55.70
52799;DHT22;38667;42.872;74.622;2023-04-07T01:54:10;9.30;55.80
52799;DHT22;38667;42.872;74.622;2023-04-07T01:56:40;9.30;56.00
52799;DHT22;38667;42.872;74.622;2023-04-07T01:59:06;9.20;56.30
52799;DHT22;38667;42.872;74.622;2023-04-07T02:01:33;9.30;56.30
52799;DHT22;38667;42.872;74.622;2023-04-07T02:04:05;9.30;56.40
52799;DHT22;38667;42.872;74.622;2023-04-07T02:06:42;9.30;56.40
52799;DHT22;38667;42.872;74.622;2023-04-07T02:09:11;9.40;56.10
52799;DHT22;38667;42.872;74.622;2023-04-07T02:11:39;9.50;56.00
52799;DHT22;38667;42.872;74.622;2023-04-07T02:14:08;9.50;55.60
52799;DHT22;38667;42.872;74.622;2023-04-07T02:16:35;9.60;55.60
52799;DHT22;38667;42.872;74.622;2023-04-07T02:19:03;9.60;55.40
52799;DHT22;38667;42.872;74.622;2023-04-07T02:21:30;9.60;55.50
52799;DHT22;38667;42.872;74.622;2023-04-07T02:24:04;9.70;55.60
52799;DHT22;38667;42.872;74.622;2023-04-07T02:26:33;9.80;55.30
52799;DHT22;38667;42.872;74.622;2023-04-07T02:28:59;9.90;55.00
52799;DHT22;38667;42.872;74.622;2023-04-07T02:31:26;9.90;54.80
52799;DHT22;38667;42.872;74.622;2023-04-07T02:33:52;9.90;55.00
52799;DHT22;38667;42.872;74.622;2023-04-07T02:36:18;10.00;55.20
52799;DHT22;38667;42.872;74.622;2023-04-07T02:38:45;10.00;54.80
52799;DHT22;38667;42.872;74.622;2023-04-07T02:41:13;10.10;54.80
52799;DHT22;38667;42.872;74.622;2023-04-07T02:43:39;10.10;54.50
52799;DHT22;38667;42.872;74.622;2023-04-07T02:46:06;10.20;54.20
52799;DHT22;38667;42.872;74.622;2023-04-07T02:48:32;10.20;54.40
52799;DHT22;38667;42.872;74.622;2023-04-07T02:50:58;10.20;54.50
52799;DHT22;38667;42.872;74.622;2023-04-07T02:53:24;10.30;54.60
52799;DHT22;38667;42.872;74.622;2023-04-07T02:55:51;10.30;54.60
52799;DHT22;38667;42.872;74.622;2023-04-07T02:58:19;10.40;54.70
52799;DHT22;38667;42.872;74.622;2023-04-07T03:00:47;10.40;54.70
52799;DHT22;38667;42.872;74.622;2023-04-07T03:03:13;10.50;54.60
52799;DHT22;38667;42.872;74.622;2023-04-07T03:05:40;10.50;54.80
52799;DHT22;38667;42.872;74.622;2023-04-07T03:08:06;10.60;54.60
52799;DHT22;38667;42.872;74.622;2023-04-07T03:10:32;10.60;54.90
52799;DHT22;38667;42.872;74.622;2023-04-07T03:12:58;10.70;54.50
52799;DHT22;38667;42.872;74.622;2023-04-07T03:15:26;10.70;54.40
52799;DHT22;38667;42.872;74.622;2023-04-07T03:17:53;10.80;54.40
52799;DHT22;38667;42.872;74.622;2023-04-07T03:20:19;10.80;54.20
52799;DHT22;38667;42.872;74.622;2023-04-07T03:22:46;10.80;54.20
52799;DHT22;38667;42.872;74.622;2023-04-07T03:25:12;10.80;54.60
52799;DHT22;38667;42.872;74.622;2023-04-07T03:27:39;10.80;56.10
52799;DHT22;38667;42.872;74.622;2023-04-07T03:30:06;10.70;56.80
52799;DHT22;38667;42.872;74.622;2023-04-07T03:32:34;10.70;58.00
52799;DHT22;38667;42.872;74.622;2023-04-07T03:35:01;10.60;58.90
52799;DHT22;38667;42.872;74.622;2023-04-07T03:37:28;10.60;59.40
52799;DHT22;38667;42.872;74.622;2023-04-07T03:39:54;10.20;60.20
52799;DHT22;38667;42.872;74.622;2023-04-07T03:42:20;10.00;60.80
52799;DHT22;38667;42.872;74.622;2023-04-07T03:44:47;9.60;61.40
52799;DHT22;38667;42.872;74.622;2023-04-07T03:47:13;9.50;61.70
52799;DHT22;38667;42.872;74.622;2023-04-07T03:49:41;9.60;61.90
52799;DHT22;38667;42.872;74.622;2023-04-07T03:52:07;9.70;61.60
52799;DHT22;38667;42.872;74.622;2023-04-07T03:54:34;9.90;60.90
52799;DHT22;38667;42.872;74.622;2023-04-07T03:57:00;10.00;60.30
52799;DHT22;38667;42.872;74.622;2023-04-07T03:59:27;10.10;59.70
52799;DHT22;38667;42.872;74.622;2023-04-07T04:01:53;10.10;60.00
52799;DHT22;38667;42.872;74.622;2023-04-07T04:04:20;10.20;59.40
52799;DHT22;38667;42.872;74.622;2023-04-07T04:06:48;10.20;59.00
52799;DHT22;38667;42.872;74.622;2023-04-07T04:09:14;10.30;58.90
52799;DHT22;38667;42.872;74.622;2023-04-07T04:11:41;10.40;59.00
52799;DHT22;38667;42.872;74.622;2023-04-07T04:14:07;10.40;58.20
52799;DHT22;38667;42.872;74.622;2023-04-07T04:16:33;10.40;57.80
52799;DHT22;38667;42.872;74.622;2023-04-07T04:19:00;10.60;57.50
52799;DHT22;38667;42.872;74.622;2023-04-07T04:21:26;10.90;57.10
52799;DHT22;38667;42.872;74.622;2023-04-07T04:23:54;11.30;56.30
52799;DHT22;38667;42.872;74.622;2023-04-07T04:26:20;11.60;54.70
52799;DHT22;38667;42.872;74.622;2023-04-07T04:28:46;11.80;54.20
52799;DHT22;38667;42.872;74.622;2023-04-07T04:31:13;11.80;53.80
52799;DHT22;38667;42.872;74.622;2023-04-07T04:33:39;11.90;54.70
52799;DHT22;38667;42.872;74.622;2023-04-07T04:36:06;12.00;53.20
52799;DHT22;38667;42.872;74.622;2023-04-07T04:38:32;12.00;53.10
52799;DHT22;38667;42.872;74.622;2023-04-07T04:41:00;12.10;54.00
52799;DHT22;38667;42.872;74.622;2023-04-07T04:43:26;12.40;53.00
52799;DHT22;38667;42.872;74.622;2023-04-07T04:45:53;12.60;52.50
52799;DHT22;38667;42.872;74.622;2023-04-07T04:48:19;12.80;52.30
52799;DHT22;38667;42.872;74.622;2023-04-07T04:50:45;13.00;51.70
52799;DHT22;38667;42.872;74.622;2023-04-07T04:53:12;13.00;51.70
52799;DHT22;38667;42.872;74.622;2023-04-07T04:55:38;12.90;51.90
52799;DHT22;38667;42.872;74.622;2023-04-07T04:58:06;12.80;52.50
52799;DHT22;38667;42.872;74.622;2023-04-07T05:00:32;12.90;52.00
52799;DHT22;38667;42.872;74.622;2023-04-07T05:02:59;13.20;51.50
52799;DHT22;38667;42.872;74.622;2023-04-07T05:05:25;13.30;51.50
52799;DHT22;38667;42.872;74.622;2023-04-07T05:07:51;13.40;50.80
52799;DHT22;38667;42.872;74.622;2023-04-07T05:10:18;13.50;51.60
52799;DHT22;38667;42.872;74.622;2023-04-07T05:12:44;13.70;50.50
52799;DHT22;38667;42.872;74.622;2023-04-07T05:15:12;13.90;50.10
52799;DHT22;38667;42.872;74.622;2023-04-07T05:17:38;13.90;49.40
52799;DHT22;38667;42.872;74.622;2023-04-07T05:20:07;14.00;50.50
52799;DHT22;38667;42.872;74.622;2023-04-07T05:22:34;14.00;51.10
52799;DHT22;38667;42.872;74.622;2023-04-07T05:25:00;14.10;50.70
52799;DHT22;38667;42.872;74.622;2023-04-07T05:27:26;14.20;50.30
52799;DHT22;38667;42.872;74.622;2023-04-07T05:29:53;14.30;48.80
52799;DHT22;38667;42.872;74.622;2023-04-07T05:32:21;14.40;49.40
52799;DHT22;38667;42.872;74.622;2023-04-07T05:34:47;14.50;48.80
52799;DHT22;38667;42.872;74.622;2023-04-07T05:37:13;14.60;48.50
52799;DHT22;38667;42.872;74.622;2023-04-07T05:39:40;14.60;48.60
52799;DHT22;38667;42.872;74.622;2023-04-07T05:42:06;14.70;48.70
52799;DHT22;38667;42.872;74.622;2023-04-07T05:44:32;14.90;48.80
52799;DHT22;38667;42.872;74.622;2023-04-07T05:46:59;15.10;47.90
52799;DHT22;38667;42.872;74.622;2023-04-07T05:49:27;15.40;46.70
52799;DHT22;38667;42.872;74.622;2023-04-07T05:51:53;15.70;46.00
52799;DHT22;38667;42.872;74.622;2023-04-07T05:54:19;16.00;45.00
52799;DHT22;38667;42.872;74.622;2023-04-07T05:56:45;16.10;44.40
52799;DHT22;38667;42.872;74.622;2023-04-07T05:59:12;15.90;44.90
52799;DHT22;38667;42.872;74.622;2023-04-07T06:01:38;15.60;45.10
52799;DHT22;38667;42.872;74.622;2023-04-07T06:04:04;15.50;44.10
52799;DHT22;38667;42.872;74.622;2023-04-07T06:06:33;15.50;44.20
52799;DHT22;38667;42.872;74.622;2023-04-07T06:08:59;15.60;44.90
52799;DHT22;38667;42.872;74.622;2023-04-07T06:11:26;15.90;43.80
52799;DHT22;38667;42.872;74.622;2023-04-07T06:13:52;16.50;43.80
52799;DHT22;38667;42.872;74.622;2023-04-07T06:16:18;17.00;42.50
52799;DHT22;38667;42.872;74.622;2023-04-07T06:18:45;17.20;43.00
52799;DHT22;38667;42.872;74.622;2023-04-07T06:21:11;17.80;42.60
52799;DHT22;38667;42.872;74.622;2023-04-07T06:23:39;18.00;42.10
52799;DHT22;38667;42.872;74.622;2023-04-07T06:26:06;17.90;41.20
52799;DHT22;38667;42.872;74.622;2023-04-07T06:28:35;17.70;42.50
52799;DHT22;38667;42.872;74.622;2023-04-07T06:31:01;17.60;42.20
52799;DHT22;38667;42.872;74.622;2023-04-07T06:33:27;17.40;43.40
52799;DHT22;38667;42.872;74.622;2023-04-07T06:35:54;17.00;43.80
52799;DHT22;38667;42.872;74.622;2023-04-07T06:38:20;16.80;44.70
52799;DHT22;38667;42.872;74.622;2023-04-07T06:40:48;16.90;44.30
52799;DHT22;38667;42.872;74.622;2023-04-07T06:43:14;16.90;44.20
52799;DHT22;38667;42.872;74.622;2023-04-07T06:45:41;16.80;44.60
52799;DHT22;38667;42.872;74.622;2023-04-07T06:48:07;16.90;43.40
52799;DHT22;38667;42.872;74.622;2023-04-07T06:50:33;17.20;42.30
52799;DHT22;38667;42.872;74.622;2023-04-07T06:53:00;17.40;41.30
52799;DHT22;38667;42.872;74.622;2023-04-07T06:55:26;18.00;41.40
52799;DHT22;38667;42.872;74.622;2023-04-07T06:57:54;18.10;40.80
52799;DHT22;38667;42.872;74.622;2023-04-07T07:00:20;18.10;39.90
52799;DHT22;38667;42.872;74.622;2023-04-07T07:02:47;17.80;40.20
52799;DHT22;38667;42.872;74.622;2023-04-07T07:05:13;17.50;40.90
52799;DHT22;38667;42.872;74.622;2023-04-07T07:07:39;17.60;40.30
52799;DHT22;38667;42.872;74.622;2023-04-07T07:10:08;17.40;41.00
52799;DHT22;38667;42.872;74.622;2023-04-07T07:12:34;17.40;41.90
52799;DHT22;38667;42.872;74.622;2023-04-07T07:15:03;17.60;40.20
52799;DHT22;38667;42.872;74.622;2023-04-07T07:17:29;17.20;41.50
52799;DHT22;38667;42.872;74.622;2023-04-07T07:19:55;17.10;41.60
52799;DHT22;38667;42.872;74.622;2023-04-07T07:22:22;17.50;40.80
52799;DHT22;38667;42.872;74.622;2023-04-07T07:24:48;17.90;40.00
52799;DHT22;38667;42.872;74.622;2023-04-07T07:27:14;18.50;38.50
52799;DHT22;38667;42.872;74.622;2023-04-07T07:29:41;19.10;38.70
52799;DHT22;38667;42.872;74.622;2023-04-07T07:32:09;19.40;38.70
52799;DHT22;38667;42.872;74.622;2023-04-07T07:34:35;19.40;38.80
52799;DHT22;38667;42.872;74.622;2023-04-07T07:37:01;19.10;39.60
52799;DHT22;38667;42.872;74.622;2023-04-07T07:39:28;18.90;41.10
52799;DHT22;38667;42.872;74.622;2023-04-07T07:41:54;18.70;40.10
52799;DHT22;38667;42.872;74.622;2023-04-07T07:44:20;18.60;41.30
52799;DHT22;38667;42.872;74.622;2023-04-07T07:46:47;18.50;40.50
52799;DHT22;38667;42.872;74.622;2023-04-07T07:49:15;18.20;41.00
52799;DHT22;38667;42.872;74.622;2023-04-07T07:51:41;18.10;41.80
52799;DHT22;38667;42.872;74.622;2023-04-07T07:54:08;18.10;42.20
52799;DHT22;38667;42.872;74.622;2023-04-07T07:56:34;17.80;42.90
52799;DHT22;38667;42.872;74.622;2023-04-07T07:59:01;17.90;43.30
52799;DHT22;38667;42.872;74.622;2023-04-07T08:01:27;17.90;43.00
52799;DHT22;38667;42.872;74.622;2023-04-07T08:03:53;17.90;43.50
52799;DHT22;38667;42.872;74.622;2023-04-07T08:06:21;18.10;42.60
52799;DHT22;38667;42.872;74.622;2023-04-07T08:08:47;18.00;43.00
52799;DHT22;38667;42.872;74.622;2023-04-07T08:11:14;17.70;43.20
52799;DHT22;38667;42.872;74.622;2023-04-07T08:13:40;17.20;44.40
52799;DHT22;38667;42.872;74.622;2023-04-07T08:16:06;16.80;45.10
52799;DHT22;38667;42.872;74.622;2023-04-07T08:18:33;16.40;45.70
52799;DHT22;38667;42.872;74.622;2023-04-07T08:20:59;16.10;46.50
52799;DHT22;38667;42.872;74.622;2023-04-07T08:23:27;15.90;47.60
52799;DHT22;38667;42.872;74.622;2023-04-07T08:25:53;15.80;48.00
52799;DHT22;38667;42.872;74.622;2023-04-07T08:28:20;15.70;47.60
52799;DHT22;38667;42.872;74.622;2023-04-07T08:30:46;15.50;49.50
52799;DHT22;38667;42.872;74.622;2023-04-07T08:33:12;15.10;51.60
52799;DHT22;38667;42.872;74.622;2023-04-07T08:35:39;14.90;52.80
52799;DHT22;38667;42.872;74.622;2023-04-07T08:38:05;14.60;53.70
52799;DHT22;38667;42.872;74.622;2023-04-07T08:40:34;14.30;55.00
52799;DHT22;38667;42.872;74.622;2023-04-07T08:43:01;14.10;55.90
52799;DHT22;38667;42.872;74.622;2023-04-07T08:45:30;13.90;57.60
52799;DHT22;38667;42.872;74.622;2023-04-07T08:47:58;13.70;58.30
52799;DHT22;38667;42.872;74.622;2023-04-07T08:50:29;13.70;58.80
52799;DHT22;38667;42.872;74.622;2023-04-07T08:53:00;13.70;59.60
52799;DHT22;38667;42.872;74.622;2023-04-07T08:55:28;13.60;59.70
52799;DHT22;38667;42.872;74.622;2023-04-07T08:57:57;13.50;60.30
52799;DHT22;38667;42.872;74.622;2023-04-07T09:00:23;13.50;60.50
52799;DHT22;38667;42.872;74.622;2023-04-07T09:02:50;13.40;60.00
52799;DHT22;38667;42.872;74.622;2023-04-07T09:05:17;13.50;60.40
52799;DHT22;38667;42.872;74.622;2023-04-07T09:07:43;13.50;59.90
52799;DHT22;38667;42.872;74.622;2023-04-07T09:10:10;13.50;59.70
52799;DHT22;38667;42.872;74.622;2023-04-07T09:12:37;13.50;60.80
52799;DHT22;38667;42.872;74.622;2023-04-07T09:15:06;13.50;59.90
52799;DHT22;38667;42.872;74.622;2023-04-07T09:17:33;13.40;59.90
52799;DHT22;38667;42.872;74.622;2023-04-07T09:19:59;13.30;60.60
52799;DHT22;38667;42.872;74.622;2023-04-07T09:22:37;13.20;60.20
52799;DHT22;38667;42.872;74.622;2023-04-07T09:25:12;13.10;61.10
52799;DHT22;38667;42.872;74.622;2023-04-07T09:27:39;13.00;60.90
52799;DHT22;38667;42.872;74.622;2023-04-07T09:30:14;12.90;61.30
52799;DHT22;38667;42.872;74.622;2023-04-07T09:32:41;12.90;61.30
52799;DHT22;38667;42.872;74.622;2023-04-07T09:35:07;12.90;61.20
52799;DHT22;38667;42.872;74.622;2023-04-07T09:37:34;13.10;61.60
52799;DHT22;38667;42.872;74.622;2023-04-07T09:40:01;13.10;60.70
52799;DHT22;38667;42.872;74.622;2023-04-07T09:42:28;13.10;60.90
52799;DHT22;38667;42.872;74.622;2023-04-07T09:44:54;13.00;61.90
52799;DHT22;38667;42.872;74.622;2023-04-07T09:47:27;13.00;61.90
52799;DHT22;38667;42.872;74.622;2023-04-07T09:49:54;13.00;63.20
52799;DHT22;38667;42.872;74.622;2023-04-07T09:52:24;12.80;61.80
52799;DHT22;38667;42.872;74.622;2023-04-07T09:54:50;12.80;62.30
52799;DHT22;38667;42.872;74.622;2023-04-07T09:57:18;12.70;62.40
52799;DHT22;38667;42.872;74.622;2023-04-07T09:59:46;12.60;62.80
52799;DHT22;38667;42.872;74.622;2023-04-07T10:02:13;12.60;62.60
52799;DHT22;38667;42.872;74.622;2023-04-07T10:04:41;12.70;62.60
52799;DHT22;38667;42.872;74.622;2023-04-07T10:07:08;12.60;61.10
52799;DHT22;38667;42.872;74.622;2023-04-07T10:09:34;12.50;61.20
52799;DHT22;38667;42.872;74.622;2023-04-07T10:12:00;12.30;61.90
52799;DHT22;38667;42.872;74.622;2023-04-07T10:14:30;12.20;62.30
52799;DHT22;38667;42.872;74.622;2023-04-07T10:16:57;12.20;62.40
52799;DHT22;38667;42.872;74.622;2023-04-07T10:19:25;12.20;62.90
52799;DHT22;38667;42.872;74.622;2023-04-07T10:21:57;12.20;62.70
52799;DHT22;38667;42.872;74.622;2023-04-07T10:24:42;12.20;63.30
52799;DHT22;38667;42.872;74.622;2023-04-07T10:27:13;12.20;62.70
52799;DHT22;38667;42.872;74.622;2023-04-07T10:29:41;12.20;63.00
52799;DHT22;38667;42.872;74.622;2023-04-07T10:32:08;12.10;63.60
52799;DHT22;38667;42.872;74.622;2023-04-07T10:35:04;12.20;63.50
52799;DHT22;38667;42.872;74.622;2023-04-07T10:37:32;12.10;63.30
52799;DHT22;38667;42.872;74.622;2023-04-07T10:40:26;12.10;63.50
52799;DHT22;38667;42.872;74.622;2023-04-07T10:42:53;12.10;63.60
52799;DHT22;38667;42.872;74.622;2023-04-07T10:45:53;12.10;63.30
52799;DHT22;38667;42.872;74.622;2023-04-07T10:48:20;12.10;63.60
52799;DHT22;38667;42.872;74.622;2023-04-07T10:51:13;12.00;64.30
52799;DHT22;38667;42.872;74.622;2023-04-07T10:57:11;12.00;64.00
52799;DHT22;38667;42.872;74.622;2023-04-07T10:59:39;11.90;63.60
52799;DHT22;38667;42.872;74.622;2023-04-07T11:02:30;11.90;64.00
52799;DHT22;38667;42.872;74.622;2023-04-07T11:04:57;11.80;64.40
52799;DHT22;38667;42.872;74.622;2023-04-07T11:07:43;11.90;65.00
52799;DHT22;38667;42.872;74.622;2023-04-07T11:10:11;11.90;65.80
52799;DHT22;38667;42.872;74.622;2023-04-07T11:12:39;11.90;66.30
52799;DHT22;38667;42.872;74.622;2023-04-07T11:15:23;11.80;68.00
52799;DHT22;38667;42.872;74.622;2023-04-07T11:18:11;11.60;68.80
52799;DHT22;38667;42.872;74.622;2023-04-07T11:20:49;11.50;70.90
52799;DHT22;38667;42.872;74.622;2023-04-07T11:23:16;11.20;74.20
52799;DHT22;38667;42.872;74.622;2023-04-07T11:25:44;11.10;75.00
52799;DHT22;38667;42.872;74.622;2023-04-07T11:28:13;11.00;76.70
52799;DHT22;38667;42.872;74.622;2023-04-07T11:30:45;10.90;77.50
52799;DHT22;38667;42.872;74.622;2023-04-07T11:33:16;10.90;77.80
52799;DHT22;38667;42.872;74.622;2023-04-07T11:35:51;10.90;78.60
52799;DHT22;38667;42.872;74.622;2023-04-07T11:38:17;10.80;80.40
52799;DHT22;38667;42.872;74.622;2023-04-07T11:40:44;10.90;81.00
52799;DHT22;38667;42.872;74.622;2023-04-07T11:43:21;10.90;80.90
52799;DHT22;38667;42.872;74.622;2023-04-07T11:46:02;10.70;81.80
52799;DHT22;38667;42.872;74.622;2023-04-07T11:48:29;10.70;83.10
52799;DHT22;38667;42.872;74.622;2023-04-07T11:50:56;10.70;82.80
52799;DHT22;38667;42.872;74.622;2023-04-07T11:53:27;10.60;81.90
52799;DHT22;38667;42.872;74.622;2023-04-07T11:55:59;10.60;82.80
52799;DHT22;38667;42.872;74.622;2023-04-07T11:58:27;10.60;84.30
52799;DHT22;38667;42.872;74.622;2023-04-07T12:00:54;10.70;85.80
52799;DHT22;38667;42.872;74.622;2023-04-07T12:03:20;10.70;86.10
52799;DHT22;38667;42.872;74.622;2023-04-07T12:05:47;10.70;86.00
52799;DHT22;38667;42.872;74.622;2023-04-07T12:08:13;10.70;87.00
52799;DHT22;38667;42.872;74.622;2023-04-07T12:10:40;10.70;82.30
52799;DHT22;38667;42.872;74.622;2023-04-07T12:13:06;10.70;85.00
52799;DHT22;38667;42.872;74.622;2023-04-07T12:15:34;10.70;86.30
52799;DHT22;38667;42.872;74.622;2023-04-07T12:18:01;10.60;85.90
52799;DHT22;38667;42.872;74.622;2023-04-07T12:20:27;10.50;86.50
52799;DHT22;38667;42.872;74.622;2023-04-07T12:22:54;10.50;88.50
52799;DHT22;38667;42.872;74.622;2023-04-07T12:25:20;10.40;87.90
52799;DHT22;38667;42.872;74.622;2023-04-07T12:27:49;10.30;87.60
52799;DHT22;38667;42.872;74.622;2023-04-07T12:30:15;10.20;87.50
52799;DHT22;38667;42.872;74.622;2023-04-07T12:32:44;10.10;86.20
52799;DHT22;38667;42.872;74.622;2023-04-07T12:35:10;10.10;85.60
52799;DHT22;38667;42.872;74.622;2023-04-07T12:37:36;10.10;86.50
52799;DHT22;38667;42.872;74.622;2023-04-07T12:40:03;10.00;89.00
52799;DHT22;38667;42.872;74.622;2023-04-07T12:42:30;10.10;90.00
52799;DHT22;38667;42.872;74.622;2023-04-07T12:44:56;10.20;88.50
52799;DHT22;38667;42.872;74.622;2023-04-07T12:47:22;10.30;86.90
52799;DHT22;38667;42.872;74.622;2023-04-07T12:49:51;10.30;85.60
52799;DHT22;38667;42.872;74.622;2023-04-07T12:52:17;10.30;83.30
52799;DHT22;38667;42.872;74.622;2023-04-07T12:54:43;10.40;84.00
52799;DHT22;38667;42.872;74.622;2023-04-07T12:57:10;10.40;85.30
52799;DHT22;38667;42.872;74.622;2023-04-07T12:59:36;10.40;89.00
52799;DHT22;38667;42.872;74.622;2023-04-07T13:02:02;10.40;88.10
52799;DHT22;38667;42.872;74.622;2023-04-07T13:04:29;10.50;83.10
52799;DHT22;38667;42.872;74.622;2023-04-07T13:06:57;10.50;84.20
52799;DHT22;38667;42.872;74.622;2023-04-07T13:09:24;10.60;86.30
52799;DHT22;38667;42.872;74.622;2023-04-07T13:11:50;10.60;82.80
52799;DHT22;38667;42.872;74.622;2023-04-07T13:14:16;10.60;82.00
52799;DHT22;38667;42.872;74.622;2023-04-07T13:16:43;10.60;84.90
52799;DHT22;38667;42.872;74.622;2023-04-07T13:19:09;10.70;88.00
52799;DHT22;38667;42.872;74.622;2023-04-07T13:21:35;10.70;89.80
52799;DHT22;38667;42.872;74.622;2023-04-07T13:24:04;10.80;90.70
52799;DHT22;38667;42.872;74.622;2023-04-07T13:26:30;10.70;91.60
52799;DHT22;38667;42.872;74.622;2023-04-07T13:28:56;10.70;90.70
52799;DHT22;38667;42.872;74.622;2023-04-07T13:31:22;10.70;91.70
52799;DHT22;38667;42.872;74.622;2023-04-07T13:33:49;10.60;92.70
52799;DHT22;38667;42.872;74.622;2023-04-07T13:36:15;10.60;93.10
52799;DHT22;38667;42.872;74.622;2023-04-07T13:38:41;10.50;92.80
52799;DHT22;38667;42.872;74.622;2023-04-07T13:41:09;10.60;94.10
52799;DHT22;38667;42.872;74.622;2023-04-07T13:43:36;10.60;93.60
52799;DHT22;38667;42.872;74.622;2023-04-07T13:46:02;10.60;93.60
52799;DHT22;38667;42.872;74.622;2023-04-07T13:48:28;10.50;92.20
52799;DHT22;38667;42.872;74.622;2023-04-07T13:50:54;10.50;92.60
52799;DHT22;38667;42.872;74.622;2023-04-07T13:53:21;10.40;92.80
52799;DHT22;38667;42.872;74.622;2023-04-07T13:55:47;10.40;93.20
52799;DHT22;38667;42.872;74.622;2023-04-07T13:58:15;10.40;93.00
52799;DHT22;38667;42.872;74.622;2023-04-07T14:00:41;10.40;93.00
52799;DHT22;38667;42.872;74.622;2023-04-07T14:03:08;10.30;93.80
52799;DHT22;38667;42.872;74.622;2023-04-07T14:05:34;10.30;93.80
52799;DHT22;38667;42.872;74.622;2023-04-07T14:08:00;10.30;93.50
52799;DHT22;38667;42.872;74.622;2023-04-07T14:10:27;10.20;95.30
52799;DHT22;38667;42.872;74.622;2023-04-07T14:12:53;10.20;95.60
52799;DHT22;38667;42.872;74.622;2023-04-07T14:15:21;10.20;94.50
52799;DHT22;38667;42.872;74.622;2023-04-07T14:17:47;10.20;94.00
52799;DHT22;38667;42.872;74.622;2023-04-07T14:20:14;10.30;94.20
52799;DHT22;38667;42.872;74.622;2023-04-07T14:22:40;10.30;93.20
52799;DHT22;38667;42.872;74.622;2023-04-07T14:25:06;10.30;92.90
52799;DHT22;38667;42.872;74.622;2023-04-07T14:27:33;10.20;91.30
52799;DHT22;38667;42.872;74.622;2023-04-07T14:29:59;10.20;92.50
52799;DHT22;38667;42.872;74.622;2023-04-07T14:32:28;10.20;93.00
52799;DHT22;38667;42.872;74.622;2023-04-07T14:34:54;10.10;93.50
52799;DHT22;38667;42.872;74.622;2023-04-07T14:37:20;10.00;93.40
52799;DHT22;38667;42.872;74.622;2023-04-07T14:39:47;10.00;94.50
52799;DHT22;38667;42.872;74.622;2023-04-07T14:42:13;9.90;93.30
52799;DHT22;38667;42.872;74.622;2023-04-07T14:44:39;9.90;92.00
52799;DHT22;38667;42.872;74.622;2023-04-07T14:47:05;10.00;87.90
52799;DHT22;38667;42.872;74.622;2023-04-07T14:49:33;10.10;86.00
52799;DHT22;38667;42.872;74.622;2023-04-07T14:52:00;10.10;85.20
52799;DHT22;38667;42.872;74.622;2023-04-07T14:54:26;10.00;85.30
52799;DHT22;38667;42.872;74.622;2023-04-07T14:56:53;10.00;85.50
52799;DHT22;38667;42.872;74.622;2023-04-07T14:59:19;10.00;85.40
52799;DHT22;38667;42.872;74.622;2023-04-07T15:01:45;9.90;85.80
52799;DHT22;38667;42.872;74.622;2023-04-07T15:04:12;9.90;86.00
52799;DHT22;38667;42.872;74.622;2023-04-07T15:06:41;9.80;87.00
52799;DHT22;38667;42.872;74.622;2023-04-07T15:09:08;9.80;87.00
52799;DHT22;38667;42.872;74.622;2023-04-07T15:11:35;9.80;87.80
52799;DHT22;38667;42.872;74.622;2023-04-07T15:14:01;9.70;86.70
52799;DHT22;38667;42.872;74.622;2023-04-07T15:16:27;9.80;85.60
52799;DHT22;38667;42.872;74.622;2023-04-07T15:18:54;9.70;85.50
52799;DHT22;38667;42.872;74.622;2023-04-07T15:21:20;9.80;86.20
52799;DHT22;38667;42.872;74.622;2023-04-07T15:23:48;9.80;84.40
52799;DHT22;38667;42.872;74.622;2023-04-07T15:26:14;9.80;83.60
52799;DHT22;38667;42.872;74.622;2023-04-07T15:28:40;9.80;83.40
52799;DHT22;38667;42.872;74.622;2023-04-07T15:31:07;9.70;84.00